Time;durP1;ratioP1;P1;durP2;ratioP2;P2;SDS_P1;SDS_P2;PMS_P1;PMS_P2;Temp;Humidity;BMP_temperature;BMP_pressure;BME280_temperature;BME280_humidity;BME280_pressure;Samples;Min_cycle;Max_cycle;Signal;HPM_P1;HPM_P2
2021/12/15 00:01:27;;;;;;;62.00;36.73;;;;;;;;;;5042721;28;20291;-70
2021/12/15 00:03:54;;;;;;;58.30;34.60;;;;;;;;;;5041530;28;20229;-70
2021/12/15 00:06:21;;;;;;;64.37;37.40;;;;;;;;;;5039754;28;20687;-70
2021/12/15 00:08:49;;;;;;;60.87;35.17;;;;;;;;;;5042312;28;20366;-71
2021/12/15 00:11:17;;;;;;;66.87;35.57;;;;;;;;;;5041566;28;20585;-71
2021/12/15 00:13:45;;;;;;;62.27;37.37;;;;;;;;;;5039869;28;20299;-70
2021/12/15 00:16:13;;;;;;;62.00;34.90;;;;;;;;;;5042409;28;20234;-70
2021/12/15 00:18:44;;;;;;;69.07;37.47;;;;;;;;;;5042243;28;20745;-70
2021/12/15 00:21:12;;;;;;;70.97;39.47;;;;;;;;;;5039957;28;20270;-71
2021/12/15 00:23:40;;;;;;;69.17;38.17;;;;;;;;;;5041703;28;20212;-70
2021/12/15 00:26:06;;;;;;;77.30;39.40;;;;;;;;;;5041987;28;20314;-70
2021/12/15 00:28:33;;;;;;;72.20;38.60;;;;;;;;;;5040752;28;21010;-70
2021/12/15 00:31:00;;;;;;;71.60;37.67;;;;;;;;;;5041016;28;20229;-70
2021/12/15 00:33:27;;;;;;;72.73;36.93;;;;;;;;;;5042738;28;20300;-70
2021/12/15 00:35:55;;;;;;;69.70;36.43;;;;;;;;;;5040570;28;20722;-70
2021/12/15 00:38:22;;;;;;;76.37;38.77;;;;;;;;;;5040746;28;20287;-71
2021/12/15 00:40:48;;;;;;;71.97;37.20;;;;;;;;;;5042348;28;20302;-71
2021/12/15 00:43:15;;;;;;;80.23;39.17;;;;;;;;;;5040007;28;20221;-71
2021/12/15 00:45:43;;;;;;;69.07;36.07;;;;;;;;;;5040728;28;21047;-70
2021/12/15 00:48:09;;;;;;;77.80;37.77;;;;;;;;;;5042021;28;20321;-70
2021/12/15 00:50:36;;;;;;;79.00;39.20;;;;;;;;;;5041038;28;20216;-70
2021/12/15 00:53:05;;;;;;;74.97;38.70;;;;;;;;;;5038809;28;20224;-70
2021/12/15 00:55:32;;;;;;;57.43;32.80;;;;;;;;;;5041329;28;20298;-70
2021/12/15 00:58:00;;;;;;;74.67;38.03;;;;;;;;;;5040846;28;20721;-70
2021/12/15 01:00:30;;;;;;;70.30;36.27;;;;;;;;;;5039333;28;20209;-70
2021/12/15 01:02:57;;;;;;;70.87;36.33;;;;;;;;;;5041156;28;20205;-70
2021/12/15 01:05:32;;;;;;;70.90;36.33;;;;;;;;;;5041086;28;20212;-70
2021/12/15 01:08:00;;;;;;;71.80;37.00;;;;;;;;;;5039703;28;20319;-70
2021/12/15 01:10:42;;;;;;;69.23;32.37;;;;;;;;;;5040248;28;21263;-69
2021/12/15 01:21:20;;;;;;;71.77;36.30;;;;;;;;;;5039478;28;21115;-70
2021/12/15 01:23:47;;;;;;;75.53;37.87;;;;;;;;;;5041338;28;20225;-70
2021/12/15 01:26:16;;;;;;;71.03;36.47;;;;;;;;;;5039289;28;21037;-70
2021/12/15 01:28:43;;;;;;;73.03;36.57;;;;;;;;;;5038704;28;20211;-72
2021/12/15 01:31:11;;;;;;;76.77;37.07;;;;;;;;;;5040548;28;20229;-71
2021/12/15 01:33:39;;;;;;;68.53;37.43;;;;;;;;;;5040668;28;20291;-70
2021/12/15 01:36:08;;;;;;;71.03;38.13;;;;;;;;;;5038844;28;20633;-71
2021/12/15 01:38:37;;;;;;;65.57;36.20;;;;;;;;;;5040353;28;20278;-70
2021/12/15 01:41:04;;;;;;;76.30;39.53;;;;;;;;;;5040719;28;20232;-70
2021/12/15 01:43:48;;;;;;;72.60;39.00;;;;;;;;;;5039204;28;20218;-71
2021/12/15 01:49:04;;;;;;;70.07;39.87;;;;;;;;;;5040721;28;20361;-71
2021/12/15 01:51:31;;;;;;;73.17;38.37;;;;;;;;;;5039697;28;20237;-70
2021/12/15 01:53:57;;;;;;;66.30;38.23;;;;;;;;;;5039637;28;20213;-71
2021/12/15 01:56:24;;;;;;;74.20;39.53;;;;;;;;;;5038986;28;20237;-71
2021/12/15 01:58:52;;;;;;;70.43;39.43;;;;;;;;;;5040489;28;20228;-71
2021/12/15 02:01:18;;;;;;;72.23;39.70;;;;;;;;;;5038561;28;20229;-70
2021/12/15 02:03:46;;;;;;;66.83;37.87;;;;;;;;;;5039629;28;20247;-70
2021/12/15 02:06:13;;;;;;;72.00;41.37;;;;;;;;;;5040925;28;20730;-71
2021/12/15 02:08:41;;;;;;;73.33;39.33;;;;;;;;;;5038349;28;20214;-72
2021/12/15 02:11:08;;;;;;;75.23;42.23;;;;;;;;;;5038598;28;20730;-72
2021/12/15 02:13:34;;;;;;;72.23;42.37;;;;;;;;;;5041046;28;20256;-72
2021/12/15 02:16:05;;;;;;;72.10;41.43;;;;;;;;;;5038335;28;20589;-71
2021/12/15 02:18:35;;;;;;;69.77;39.87;;;;;;;;;;5038229;28;20220;-75
2021/12/15 02:21:06;;;;;;;76.17;41.87;;;;;;;;;;5040647;28;20216;-71
2021/12/15 02:23:39;;;;;;;66.47;39.87;;;;;;;;;;5039366;28;20647;-72
2021/12/15 02:26:10;;;;;;;67.20;41.37;;;;;;;;;;5037758;28;20228;-71
2021/12/15 02:28:38;;;;;;;70.23;41.73;;;;;;;;;;5040146;28;20303;-71
2021/12/15 02:31:12;;;;;;;73.63;41.27;;;;;;;;;;5044530;28;20219;-71
2021/12/15 02:33:58;;;;;;;72.50;44.33;;;;;;;;;;5042492;28;20237;-71
2021/12/15 02:39:11;;;;;;;71.63;41.97;;;;;;;;;;5044400;28;20798;-73
2021/12/15 02:41:39;;;;;;;81.60;45.97;;;;;;;;;;5043175;28;20592;-70
2021/12/15 02:44:08;;;;;;;71.83;44.60;;;;;;;;;;5042189;28;20643;-70
2021/12/15 02:46:36;;;;;;;76.90;44.63;;;;;;;;;;5044161;28;20676;-70
2021/12/15 02:49:05;;;;;;;72.87;46.20;;;;;;;;;;5043491;28;20231;-73
2021/12/15 02:51:34;;;;;;;74.63;44.67;;;;;;;;;;5042826;28;20213;-73
2021/12/15 02:54:01;;;;;;;74.10;42.37;;;;;;;;;;5043612;28;20216;-71
2021/12/15 02:56:28;;;;;;;71.47;44.20;;;;;;;;;;5043440;28;20228;-73
2021/12/15 02:58:59;;;;;;;73.90;43.10;;;;;;;;;;5041881;28;20218;-73
2021/12/15 03:01:35;;;;;;;74.97;45.93;;;;;;;;;;5042680;28;20675;-73
2021/12/15 03:04:16;;;;;;;70.90;45.03;;;;;;;;;;5044105;28;20220;-73
2021/12/15 03:06:52;;;;;;;82.30;47.50;;;;;;;;;;5042511;28;20304;-73
2021/12/15 03:17:40;;;;;;;80.27;46.03;;;;;;;;;;5042770;28;20250;-73
2021/12/15 03:20:09;;;;;;;73.40;46.43;;;;;;;;;;5041876;28;20230;-73
2021/12/15 03:22:37;;;;;;;80.97;46.57;;;;;;;;;;5043637;28;20721;-73
2021/12/15 03:25:05;;;;;;;79.67;47.23;;;;;;;;;;5040851;28;20229;-73
2021/12/15 03:35:59;;;;;;;74.77;45.13;;;;;;;;;;5042430;28;20718;-71
2021/12/15 03:38:27;;;;;;;78.43;45.90;;;;;;;;;;5041448;28;20214;-71
2021/12/15 03:40:53;;;;;;;79.83;47.27;;;;;;;;;;5042363;28;20733;-71
2021/12/15 03:43:21;;;;;;;76.33;47.37;;;;;;;;;;5042948;28;20966;-71
2021/12/15 03:45:56;;;;;;;80.93;47.67;;;;;;;;;;5041221;28;20290;-71
2021/12/15 03:48:25;;;;;;;77.67;47.60;;;;;;;;;;5041315;28;20267;-71
2021/12/15 03:50:53;;;;;;;82.60;49.47;;;;;;;;;;5042742;28;20260;-71
2021/12/15 03:53:19;;;;;;;74.43;47.13;;;;;;;;;;5041486;28;21048;-71
2021/12/15 03:55:48;;;;;;;72.27;45.77;;;;;;;;;;5041731;28;20684;-72
2021/12/15 03:58:16;;;;;;;76.10;46.87;;;;;;;;;;5043169;28;20726;-71
2021/12/15 04:00:46;;;;;;;79.33;46.70;;;;;;;;;;5041539;28;20232;-71
2021/12/15 04:03:21;;;;;;;76.43;48.70;;;;;;;;;;5041271;28;20212;-71
2021/12/15 04:05:48;;;;;;;70.23;45.20;;;;;;;;;;5043239;28;20348;-71
2021/12/15 04:08:14;;;;;;;67.10;44.47;;;;;;;;;;5040911;28;20216;-71
2021/12/15 04:10:41;;;;;;;72.07;45.50;;;;;;;;;;5040198;28;20231;-71
2021/12/15 04:13:12;;;;;;;70.70;46.60;;;;;;;;;;5042033;28;20241;-73
2021/12/15 04:15:44;;;;;;;73.83;47.43;;;;;;;;;;5041971;28;20695;-71
2021/12/15 04:18:11;;;;;;;66.20;39.83;;;;;;;;;;5040052;28;20620;-71
2021/12/15 04:20:40;;;;;;;74.93;47.07;;;;;;;;;;5042149;28;20213;-71
2021/12/15 04:23:09;;;;;;;74.57;45.67;;;;;;;;;;5042642;28;20210;-71
2021/12/15 04:25:39;;;;;;;69.43;44.73;;;;;;;;;;5040671;28;20236;-71
2021/12/15 04:28:10;;;;;;;75.87;46.77;;;;;;;;;;5039822;28;20206;-71
2021/12/15 04:30:43;;;;;;;70.90;45.23;;;;;;;;;;5041226;28;20282;-71
2021/12/15 04:33:13;;;;;;;68.00;42.17;;;;;;;;;;5041431;28;20221;-71
2021/12/15 04:35:40;;;;;;;66.43;42.37;;;;;;;;;;5040342;28;20233;-71
2021/12/15 04:38:07;;;;;;;69.30;44.97;;;;;;;;;;5041121;28;20207;-71
2021/12/15 04:40:36;;;;;;;68.77;44.00;;;;;;;;;;5042072;28;20690;-71
2021/12/15 04:43:02;;;;;;;64.60;43.43;;;;;;;;;;5039805;28;20225;-71
2021/12/15 04:45:30;;;;;;;67.70;42.70;;;;;;;;;;5040433;28;20706;-71
2021/12/15 04:47:57;;;;;;;71.30;43.27;;;;;;;;;;5042231;28;20609;-71
2021/12/15 04:50:27;;;;;;;69.23;43.83;;;;;;;;;;5039030;28;20238;-71
2021/12/15 04:52:54;;;;;;;64.73;42.53;;;;;;;;;;5040617;28;20781;-73
2021/12/15 04:55:21;;;;;;;62.80;42.83;;;;;;;;;;5041718;28;20223;-71
2021/12/15 04:57:49;;;;;;;67.63;42.30;;;;;;;;;;5039661;28;20576;-71
2021/12/15 05:00:22;;;;;;;67.37;41.67;;;;;;;;;;5039944;28;20263;-71
2021/12/15 05:02:52;;;;;;;59.10;39.23;;;;;;;;;;5040832;28;20287;-71
2021/12/15 05:05:19;;;;;;;66.10;41.27;;;;;;;;;;5038213;28;20215;-71
2021/12/15 05:07:46;;;;;;;63.70;41.53;;;;;;;;;;5038958;28;20746;-71
2021/12/15 05:10:12;;;;;;;68.33;40.37;;;;;;;;;;5039802;28;20232;-71
2021/12/15 05:12:39;;;;;;;68.40;39.50;;;;;;;;;;5038475;28;20293;-71
2021/12/15 05:15:07;;;;;;;65.17;42.07;;;;;;;;;;5039021;28;20219;-71
2021/12/15 05:17:35;;;;;;;67.13;42.03;;;;;;;;;;5041468;28;20570;-72
2021/12/15 05:20:05;;;;;;;68.37;41.30;;;;;;;;;;5041186;28;20727;-71
2021/12/15 05:22:33;;;;;;;67.30;42.07;;;;;;;;;;5039873;28;20212;-71
2021/12/15 05:25:00;;;;;;;63.53;38.13;;;;;;;;;;5039632;28;20225;-71
2021/12/15 05:27:27;;;;;;;68.17;40.13;;;;;;;;;;5041775;28;20207;-71
2021/12/15 05:29:53;;;;;;;66.43;41.67;;;;;;;;;;5038703;28;20271;-71
2021/12/15 05:32:22;;;;;;;72.57;51.30;;;;;;;;;;5038906;28;20440;-74
2021/12/15 05:34:51;;;;;;;68.83;41.73;;;;;;;;;;5041690;28;20209;-76
2021/12/15 05:37:21;;;;;;;65.67;40.37;;;;;;;;;;5038820;28;20216;-74
2021/12/15 05:39:50;;;;;;;66.33;40.60;;;;;;;;;;5040014;28;20256;-74
2021/12/15 05:42:17;;;;;;;64.20;39.70;;;;;;;;;;5041379;28;20222;-75
2021/12/15 05:44:44;;;;;;;65.57;40.33;;;;;;;;;;5039442;28;20214;-74
2021/12/15 05:47:11;;;;;;;65.17;39.50;;;;;;;;;;5038652;28;20641;-75
2021/12/15 05:49:38;;;;;;;67.30;40.07;;;;;;;;;;5041976;28;20658;-75
2021/12/15 05:52:06;;;;;;;64.03;38.03;;;;;;;;;;5039988;28;20630;-75
2021/12/15 05:54:34;;;;;;;63.20;39.80;;;;;;;;;;5039730;28;21858;-75
2021/12/15 05:57:01;;;;;;;66.73;38.87;;;;;;;;;;5040934;28;20210;-75
2021/12/15 05:59:27;;;;;;;55.07;36.57;;;;;;;;;;5040998;28;20256;-74
2021/12/15 06:01:55;;;;;;;60.97;37.00;;;;;;;;;;5038958;28;20228;-75
2021/12/15 06:04:22;;;;;;;66.97;40.27;;;;;;;;;;5040373;28;20209;-74
2021/12/15 06:06:49;;;;;;;57.43;37.80;;;;;;;;;;5040670;28;20225;-75
2021/12/15 06:09:15;;;;;;;64.27;38.10;;;;;;;;;;5038398;28;20215;-74
2021/12/15 06:11:47;;;;;;;60.73;38.23;;;;;;;;;;5039966;28;20247;-74
2021/12/15 06:14:22;;;;;;;60.83;37.47;;;;;;;;;;5040484;28;20221;-75
2021/12/15 06:16:48;;;;;;;61.47;37.77;;;;;;;;;;5038108;28;20247;-75
2021/12/15 06:19:15;;;;;;;60.03;37.70;;;;;;;;;;5039001;28;20216;-76
2021/12/15 06:21:42;;;;;;;63.70;36.80;;;;;;;;;;5040081;28;20236;-75
2021/12/15 06:24:08;;;;;;;57.97;36.70;;;;;;;;;;5037886;28;20628;-76
2021/12/15 06:26:35;;;;;;;58.87;37.23;;;;;;;;;;5037791;28;20231;-75
2021/12/15 06:29:04;;;;;;;59.17;37.77;;;;;;;;;;5040834;28;20212;-75
2021/12/15 06:31:30;;;;;;;59.70;36.67;;;;;;;;;;5039517;28;20224;-75
2021/12/15 06:33:57;;;;;;;54.90;34.97;;;;;;;;;;5038631;28;20238;-75
2021/12/15 06:36:24;;;;;;;60.63;39.13;;;;;;;;;;5040807;28;20271;-75
2021/12/15 06:38:53;;;;;;;57.17;35.50;;;;;;;;;;5039645;28;20277;-75
2021/12/15 06:41:21;;;;;;;57.53;34.33;;;;;;;;;;5037956;28;20861;-75
2021/12/15 06:43:51;;;;;;;62.47;37.03;;;;;;;;;;5040949;28;20261;-74
2021/12/15 06:59:58;;;;;;;62.10;35.13;;;;;;;;;;5012822;28;20346;-74
2021/12/15 07:02:26;;;;;;;59.07;36.53;;;;;;;;;;5036750;28;20348;-75
2021/12/15 07:04:52;;;;;;;58.53;36.03;;;;;;;;;;5038881;28;20282;-74
2021/12/15 07:07:18;;;;;;;56.07;33.73;;;;;;;;;;5035521;28;20239;-75
2021/12/15 07:09:45;;;;;;;59.27;34.73;;;;;;;;;;5037456;28;20661;-74
2021/12/15 07:12:11;;;;;;;64.80;36.27;;;;;;;;;;5036523;28;20261;-74
2021/12/15 07:14:38;;;;;;;59.03;35.50;;;;;;;;;;5037724;28;20234;-74
2021/12/15 07:17:15;;;;;;;54.93;34.77;;;;;;;;;;5041941;28;20232;-74
2021/12/15 07:20:04;;;;;;;55.67;35.37;;;;;;;;;;5040846;28;20208;-74
2021/12/15 07:22:35;;;;;;;57.17;35.43;;;;;;;;;;5041910;28;20296;-75
2021/12/15 07:25:04;;;;;;;58.23;36.90;;;;;;;;;;5040220;28;20579;-74
2021/12/15 07:27:31;;;;;;;66.00;36.80;;;;;;;;;;5041187;28;21209;-75
2021/12/15 07:29:57;;;;;;;59.40;34.30;;;;;;;;;;5042197;28;20275;-75
2021/12/15 07:32:24;;;;;;;59.80;35.00;;;;;;;;;;5038870;28;20232;-74
2021/12/15 07:34:52;;;;;;;64.57;35.57;;;;;;;;;;5040667;28;21233;-75
2021/12/15 07:37:19;;;;;;;61.80;35.03;;;;;;;;;;5039758;28;20258;-74
2021/12/15 07:39:54;;;;;;;60.03;35.53;;;;;;;;;;5038686;28;20305;-75
2021/12/15 07:42:30;;;;;;;66.07;35.87;;;;;;;;;;5040061;28;20281;-75
2021/12/15 07:44:56;;;;;;;59.37;34.73;;;;;;;;;;5038058;28;20347;-75
2021/12/15 07:47:23;;;;;;;62.77;35.63;;;;;;;;;;5039187;28;20327;-76
2021/12/15 07:49:49;;;;;;;56.80;34.50;;;;;;;;;;5040038;28;20692;-75
2021/12/15 07:52:18;;;;;;;62.27;36.20;;;;;;;;;;5036744;28;20263;-75
2021/12/15 07:54:44;;;;;;;56.03;32.87;;;;;;;;;;5040262;28;20343;-74
2021/12/15 07:57:17;;;;;;;62.73;34.63;;;;;;;;;;5038680;28;20775;-75
2021/12/15 07:59:43;;;;;;;61.27;36.17;;;;;;;;;;5040634;28;20217;-75
2021/12/15 08:02:10;;;;;;;56.87;34.73;;;;;;;;;;5039897;28;20241;-75
2021/12/15 08:04:36;;;;;;;58.73;34.90;;;;;;;;;;5039342;28;20266;-75
2021/12/15 08:07:03;;;;;;;60.73;33.67;;;;;;;;;;5042314;28;20796;-74
2021/12/15 08:09:31;;;;;;;59.47;34.20;;;;;;;;;;5039018;28;20270;-75
2021/12/15 08:11:58;;;;;;;59.50;32.60;;;;;;;;;;5040795;28;20242;-75
2021/12/15 08:14:24;;;;;;;58.27;33.20;;;;;;;;;;5040088;28;20230;-75
2021/12/15 08:16:52;;;;;;;62.93;35.00;;;;;;;;;;5039359;28;20232;-75
2021/12/15 08:19:19;;;;;;;57.40;33.67;;;;;;;;;;5041522;28;20236;-76
2021/12/15 08:21:46;;;;;;;57.97;34.60;;;;;;;;;;5038244;28;20929;-75
2021/12/15 08:24:13;;;;;;;53.33;33.23;;;;;;;;;;5039364;28;20217;-74
2021/12/15 08:26:41;;;;;;;57.83;34.27;;;;;;;;;;5038315;28;20291;-75
2021/12/15 08:29:08;;;;;;;55.93;32.83;;;;;;;;;;5039402;28;20267;-75
2021/12/15 08:31:34;;;;;;;60.27;34.40;;;;;;;;;;5040750;28;20708;-75
2021/12/15 08:34:01;;;;;;;59.77;34.93;;;;;;;;;;5038139;28;20237;-75
2021/12/15 08:36:27;;;;;;;58.87;35.50;;;;;;;;;;5039761;28;20534;-75
2021/12/15 08:38:54;;;;;;;56.00;32.43;;;;;;;;;;5039225;28;20295;-75
2021/12/15 08:41:23;;;;;;;54.27;33.10;;;;;;;;;;5038677;28;20280;-75
2021/12/15 08:43:51;;;;;;;52.40;32.33;;;;;;;;;;5039939;28;20216;-75
2021/12/15 08:46:19;;;;;;;57.17;33.50;;;;;;;;;;5037909;28;20872;-75
2021/12/15 08:48:48;;;;;;;61.00;34.10;;;;;;;;;;5040406;28;20282;-74
2021/12/15 08:51:16;;;;;;;56.60;34.17;;;;;;;;;;5038169;28;20216;-75
2021/12/15 08:53:45;;;;;;;57.47;32.47;;;;;;;;;;5038710;28;20240;-74
2021/12/15 08:56:12;;;;;;;55.60;34.10;;;;;;;;;;5038594;28;20228;-74
2021/12/15 08:58:39;;;;;;;57.13;33.87;;;;;;;;;;5034931;28;20859;-74
2021/12/15 09:01:08;;;;;;;53.83;32.87;;;;;;;;;;5038811;28;20230;-74
2021/12/15 09:03:35;;;;;;;54.97;33.30;;;;;;;;;;5037580;28;20265;-74
2021/12/15 09:06:03;;;;;;;52.00;32.33;;;;;;;;;;5039077;28;20224;-74
2021/12/15 09:08:30;;;;;;;49.33;32.10;;;;;;;;;;5038364;28;20557;-74
2021/12/15 09:11:00;;;;;;;54.63;33.43;;;;;;;;;;5038897;28;20300;-75
2021/12/15 09:13:30;;;;;;;53.40;33.27;;;;;;;;;;5039585;28;20209;-74
2021/12/15 09:15:57;;;;;;;51.53;31.50;;;;;;;;;;5039506;28;20777;-75
2021/12/15 09:18:25;;;;;;;50.90;30.43;;;;;;;;;;5039520;28;20216;-75
2021/12/15 09:20:52;;;;;;;50.77;31.87;;;;;;;;;;5038086;28;20306;-75
2021/12/15 09:23:19;;;;;;;50.83;30.43;;;;;;;;;;5040286;28;20217;-75
2021/12/15 09:25:47;;;;;;;57.70;31.87;;;;;;;;;;5037916;28;20220;-74
2021/12/15 09:28:14;;;;;;;56.00;32.80;;;;;;;;;;5038658;28;20558;-74
2021/12/15 09:30:44;;;;;;;55.53;32.80;;;;;;;;;;5039100;28;20735;-75
2021/12/15 09:33:11;;;;;;;56.47;31.97;;;;;;;;;;5036831;28;20305;-75
2021/12/15 09:35:39;;;;;;;61.23;32.93;;;;;;;;;;5036579;28;20236;-75
2021/12/15 09:38:05;;;;;;;61.00;33.97;;;;;;;;;;5040134;28;20262;-75
2021/12/15 09:40:31;;;;;;;56.30;31.83;;;;;;;;;;5038125;28;20306;-75
2021/12/15 09:42:58;;;;;;;54.87;30.83;;;;;;;;;;5039830;28;20286;-75
2021/12/15 09:45:37;;;;;;;54.47;31.03;;;;;;;;;;5036982;28;20239;-75
2021/12/15 09:56:22;;;;;;;49.23;29.90;;;;;;;;;;5038849;28;20347;-75
2021/12/15 09:57:10;;;;;;;47.93;30.77;;;;;;;;;;5038547;28;20282;-74
2021/12/15 10:02:41;;;;;;;46.00;29.23;;;;;;;;;;5036371;28;20664;-76
2021/12/15 10:05:23;;;;;;;44.80;30.23;;;;;;;;;;5038763;28;20593;-76
2021/12/15 10:10:44;;;;;;;39.90;25.57;;;;;;;;;;5036705;28;20303;-76
2021/12/15 10:18:47;;;;;;;34.47;23.93;;;;;;;;;;5037257;28;20999;-77
2021/12/15 10:21:24;;;;;;;36.83;24.13;;;;;;;;;;5037096;28;20301;-76
2021/12/15 10:23:52;;;;;;;33.87;21.83;;;;;;;;;;5036067;28;20220;-76
2021/12/15 10:26:19;;;;;;;31.47;22.00;;;;;;;;;;5034421;28;20229;-76
2021/12/15 10:28:52;;;;;;;33.47;22.57;;;;;;;;;;5037791;28;20512;-76
2021/12/15 10:31:21;;;;;;;32.57;19.70;;;;;;;;;;5036014;28;20735;-76
2021/12/15 10:33:50;;;;;;;33.37;20.83;;;;;;;;;;5037654;28;20273;-76
2021/12/15 10:36:19;;;;;;;29.73;20.43;;;;;;;;;;5036645;28;20225;-76
2021/12/15 10:38:48;;;;;;;31.67;20.10;;;;;;;;;;5036498;28;20217;-76
2021/12/15 10:41:18;;;;;;;31.40;20.97;;;;;;;;;;5038096;28;20231;-76
2021/12/15 10:43:48;;;;;;;33.77;22.60;;;;;;;;;;5036688;28;20217;-76
2021/12/15 10:46:17;;;;;;;33.80;22.83;;;;;;;;;;5036988;28;20230;-76
2021/12/15 10:48:48;;;;;;;34.37;22.77;;;;;;;;;;5037798;28;20241;-76
2021/12/15 10:51:34;;;;;;;33.40;21.47;;;;;;;;;;5037408;28;20259;-76
2021/12/15 10:54:05;;;;;;;34.47;21.53;;;;;;;;;;5041450;28;20213;-76
2021/12/15 10:56:36;;;;;;;31.10;20.80;;;;;;;;;;5040414;28;20230;-76
2021/12/15 10:59:05;;;;;;;31.20;21.60;;;;;;;;;;5041721;28;20335;-76
2021/12/15 11:01:57;;;;;;;32.40;21.97;;;;;;;;;;5042381;28;20229;-77
2021/12/15 11:04:31;;;;;;;29.57;21.57;;;;;;;;;;5037300;28;20221;-76
2021/12/15 11:07:17;;;;;;;30.43;21.87;;;;;;;;;;5041737;28;20214;-75
2021/12/15 11:09:46;;;;;;;31.10;20.93;;;;;;;;;;5041330;28;20291;-75
2021/12/15 11:12:19;;;;;;;32.13;20.83;;;;;;;;;;5040629;28;20688;-75
2021/12/15 11:14:49;;;;;;;26.43;20.03;;;;;;;;;;5042589;28;20232;-74
2021/12/15 11:17:18;;;;;;;24.60;19.30;;;;;;;;;;5040447;28;20232;-76
2021/12/15 11:19:49;;;;;;;26.03;19.73;;;;;;;;;;5040242;28;20657;-77
2021/12/15 11:22:47;;;;;;;28.00;18.90;;;;;;;;;;5041067;28;20237;-75
2021/12/15 11:25:20;;;;;;;28.10;18.63;;;;;;;;;;5039433;28;20249;-75
2021/12/15 11:27:52;;;;;;;25.50;18.47;;;;;;;;;;5040917;28;20229;-75
2021/12/15 11:30:26;;;;;;;24.43;17.37;;;;;;;;;;5041783;28;20854;-74
2021/12/15 11:32:55;;;;;;;26.83;18.57;;;;;;;;;;5040199;28;20217;-76
2021/12/15 11:35:25;;;;;;;30.30;19.57;;;;;;;;;;5040523;28;20229;-75
2021/12/15 11:37:57;;;;;;;24.33;18.30;;;;;;;;;;5041680;28;20649;-75
2021/12/15 11:40:31;;;;;;;25.00;16.30;;;;;;;;;;5039433;28;20380;-77
2021/12/15 11:42:59;;;;;;;21.90;15.57;;;;;;;;;;5040392;28;20217;-75
2021/12/15 11:45:28;;;;;;;22.03;16.27;;;;;;;;;;5042033;28;20721;-74
2021/12/15 11:48:14;;;;;;;22.60;14.47;;;;;;;;;;5040378;28;20267;-74
2021/12/15 11:50:42;;;;;;;22.37;13.07;;;;;;;;;;5040861;28;20669;-75
2021/12/15 11:53:20;;;;;;;21.27;13.03;;;;;;;;;;5041158;28;20227;-78
2021/12/15 11:55:47;;;;;;;18.53;13.37;;;;;;;;;;5041176;28;20233;-75
2021/12/15 11:58:15;;;;;;;19.57;13.40;;;;;;;;;;5039684;28;20270;-76
2021/12/15 12:00:41;;;;;;;18.37;12.23;;;;;;;;;;5040531;28;20280;-77
2021/12/15 12:03:08;;;;;;;16.87;11.47;;;;;;;;;;5038095;28;20291;-76
2021/12/15 12:05:37;;;;;;;17.97;12.37;;;;;;;;;;5041628;28;20255;-77
2021/12/15 12:08:07;;;;;;;16.83;10.90;;;;;;;;;;5039095;28;20259;-77
2021/12/15 12:10:43;;;;;;;14.30;10.10;;;;;;;;;;5040820;28;20222;-77
2021/12/15 12:13:15;;;;;;;16.63;9.33;;;;;;;;;;5042927;28;20205;-77
2021/12/15 12:15:45;;;;;;;12.43;9.33;;;;;;;;;;5041292;28;20291;-76
2021/12/15 12:18:15;;;;;;;12.77;7.90;;;;;;;;;;5040914;28;20217;-76
2021/12/15 12:20:44;;;;;;;11.90;6.77;;;;;;;;;;5042546;28;20685;-76
2021/12/15 12:23:13;;;;;;;13.90;6.33;;;;;;;;;;5041766;28;20664;-76
2021/12/15 12:25:42;;;;;;;11.27;5.00;;;;;;;;;;5038795;28;20233;-76
2021/12/15 12:28:12;;;;;;;9.47;5.30;;;;;;;;;;5040521;28;20215;-76
2021/12/15 12:30:41;;;;;;;9.27;4.50;;;;;;;;;;5042430;28;20210;-76
2021/12/15 12:33:10;;;;;;;8.77;3.77;;;;;;;;;;5040607;28;20221;-75
2021/12/15 12:35:41;;;;;;;8.43;4.60;;;;;;;;;;5039693;28;20286;-75
2021/12/15 12:38:11;;;;;;;10.00;4.00;;;;;;;;;;5042078;28;20221;-76
2021/12/15 12:40:47;;;;;;;9.27;4.13;;;;;;;;;;5040544;28;20241;-76
2021/12/15 12:43:20;;;;;;;7.63;4.33;;;;;;;;;;5039842;28;20209;-76
2021/12/15 12:45:55;;;;;;;7.13;3.13;;;;;;;;;;5041671;28;20291;-76
2021/12/15 12:48:35;;;;;;;7.97;3.60;;;;;;;;;;5041042;28;20744;-76
2021/12/15 12:59:42;;;;;;;6.23;1.97;;;;;;;;;;5040435;28;20589;-75
2021/12/15 13:02:38;;;;;;;5.30;2.07;;;;;;;;;;5039433;28;20358;-76
2021/12/15 13:05:25;;;;;;;5.57;2.30;;;;;;;;;;5041475;28;20212;-75
2021/12/15 13:07:54;;;;;;;5.17;2.53;;;;;;;;;;5041016;28;20224;-76
2021/12/15 13:10:41;;;;;;;3.60;1.80;;;;;;;;;;5039064;28;20237;-75
2021/12/15 13:13:13;;;;;;;3.03;1.70;;;;;;;;;;5040399;28;20734;-76
2021/12/15 13:15:40;;;;;;;3.17;0.90;;;;;;;;;;5040262;28;20237;-76
2021/12/15 13:18:12;;;;;;;4.53;1.20;;;;;;;;;;5039384;28;20768;-75
2021/12/15 13:20:39;;;;;;;3.93;1.30;;;;;;;;;;5041398;28;20715;-76
2021/12/15 13:23:19;;;;;;;3.93;1.50;;;;;;;;;;5039196;28;20588;-76
2021/12/15 13:28:45;;;;;;;4.13;1.97;;;;;;;;;;5039335;28;20541;-76
2021/12/15 13:31:15;;;;;;;3.37;1.10;;;;;;;;;;5037985;28;20215;-76
2021/12/15 13:33:47;;;;;;;5.53;1.20;;;;;;;;;;5039318;28;20667;-75
2021/12/15 13:36:16;;;;;;;4.43;1.87;;;;;;;;;;5038707;28;20267;-76
2021/12/15 13:38:48;;;;;;;6.63;1.43;;;;;;;;;;5036535;28;20311;-75
2021/12/15 13:41:41;;;;;;;2.63;1.47;;;;;;;;;;5038826;28;20249;-75
2021/12/15 13:44:23;;;;;;;6.10;1.50;;;;;;;;;;5036223;28;20211;-75
2021/12/15 13:46:52;;;;;;;4.27;1.70;;;;;;;;;;5038764;28;20732;-76
2021/12/15 13:49:28;;;;;;;4.77;1.23;;;;;;;;;;5036280;28;20310;-76
2021/12/15 13:52:09;;;;;;;4.07;1.07;;;;;;;;;;5038812;28;20332;-75
2021/12/15 13:55:00;;;;;;;6.30;1.30;;;;;;;;;;5037083;28;20286;-76
2021/12/15 13:57:30;;;;;;;4.10;1.97;;;;;;;;;;5036023;28;20217;-75
2021/12/15 14:00:11;;;;;;;3.73;1.30;;;;;;;;;;5038870;28;21130;-76
2021/12/15 14:02:40;;;;;;;5.07;1.67;;;;;;;;;;5036637;28;20229;-76
2021/12/15 14:05:21;;;;;;;4.40;1.63;;;;;;;;;;5038225;28;20210;-76
2021/12/15 14:07:50;;;;;;;4.17;1.70;;;;;;;;;;5038576;28;20216;-76
2021/12/15 14:10:44;;;;;;;4.90;1.63;;;;;;;;;;5037196;28;20224;-76
2021/12/15 14:13:11;;;;;;;5.67;1.67;;;;;;;;;;5039107;28;20275;-75
2021/12/15 14:15:54;;;;;;;4.03;1.87;;;;;;;;;;5035971;28;20312;-76
2021/12/15 14:18:25;;;;;;;6.37;1.77;;;;;;;;;;5038258;28;20228;-76
2021/12/15 14:20:56;;;;;;;6.23;2.10;;;;;;;;;;5037003;28;20261;-76
2021/12/15 14:23:25;;;;;;;6.33;1.70;;;;;;;;;;5036600;28;20676;-76
2021/12/15 14:25:52;;;;;;;5.70;1.80;;;;;;;;;;5037317;28;20262;-76
2021/12/15 14:28:21;;;;;;;6.07;1.93;;;;;;;;;;5035221;28;20440;-76
2021/12/15 14:30:53;;;;;;;7.03;1.70;;;;;;;;;;5038667;28;20830;-76
2021/12/15 14:33:22;;;;;;;4.67;1.37;;;;;;;;;;5035970;28;20216;-76
2021/12/15 14:35:50;;;;;;;4.63;2.00;;;;;;;;;;5039527;28;20237;-76
2021/12/15 14:38:16;;;;;;;3.73;1.60;;;;;;;;;;5035927;28;20308;-76
2021/12/15 14:40:42;;;;;;;4.40;1.30;;;;;;;;;;5037801;28;20264;-76
2021/12/15 14:43:12;;;;;;;3.93;1.50;;;;;;;;;;5036686;28;20217;-76
2021/12/15 14:45:39;;;;;;;4.43;1.57;;;;;;;;;;5037369;28;20647;-76
2021/12/15 14:48:18;;;;;;;4.53;1.50;;;;;;;;;;5037361;28;20221;-75
2021/12/15 14:50:45;;;;;;;4.20;1.50;;;;;;;;;;5037653;28;20217;-76
2021/12/15 14:53:12;;;;;;;5.53;1.33;;;;;;;;;;5037928;28;20810;-76
2021/12/15 14:55:40;;;;;;;3.63;1.10;;;;;;;;;;5036452;28;20259;-75
2021/12/15 14:58:06;;;;;;;4.07;1.20;;;;;;;;;;5038579;28;20590;-76
2021/12/15 15:00:36;;;;;;;5.70;1.20;;;;;;;;;;5035502;28;20256;-76
2021/12/15 15:03:05;;;;;;;5.07;1.60;;;;;;;;;;5038512;28;20218;-76
2021/12/15 15:05:35;;;;;;;8.83;1.50;;;;;;;;;;5035277;28;20639;-76
2021/12/15 15:08:06;;;;;;;3.07;1.37;;;;;;;;;;5038468;28;20240;-77
2021/12/15 15:10:36;;;;;;;4.47;1.60;;;;;;;;;;5036259;28;20225;-76
2021/12/15 15:13:03;;;;;;;3.40;1.43;;;;;;;;;;5037712;28;21169;-76
2021/12/15 15:15:33;;;;;;;6.73;1.83;;;;;;;;;;5036512;28;20216;-76
2021/12/15 15:18:06;;;;;;;6.37;1.60;;;;;;;;;;5036365;28;20226;-76
2021/12/15 15:20:36;;;;;;;4.77;1.50;;;;;;;;;;5037993;28;20572;-75
2021/12/15 15:23:06;;;;;;;2.57;1.50;;;;;;;;;;5033808;28;20226;-75
2021/12/15 15:25:35;;;;;;;5.63;1.57;;;;;;;;;;5035584;28;20270;-75
2021/12/15 15:28:05;;;;;;;4.73;1.60;;;;;;;;;;5033912;28;20209;-75
2021/12/15 15:30:33;;;;;;;5.07;1.40;;;;;;;;;;5035387;28;20276;-75
2021/12/15 15:33:03;;;;;;;5.67;1.80;;;;;;;;;;5033373;28;20227;-75
2021/12/15 15:35:35;;;;;;;6.80;1.97;;;;;;;;;;5035111;28;20209;-75
2021/12/15 15:38:05;;;;;;;6.07;1.90;;;;;;;;;;5034919;28;20201;-75
2021/12/15 15:40:34;;;;;;;4.87;1.93;;;;;;;;;;5036625;28;20313;-75
2021/12/15 15:43:05;;;;;;;6.73;2.13;;;;;;;;;;5038610;28;20221;-75
2021/12/15 15:45:37;;;;;;;5.10;2.30;;;;;;;;;;5030709;28;20599;-75
2021/12/15 15:48:06;;;;;;;4.27;1.80;;;;;;;;;;5040840;28;20716;-75
2021/12/15 15:50:37;;;;;;;4.57;2.00;;;;;;;;;;5037172;28;20213;-75
2021/12/15 15:53:06;;;;;;;5.90;2.03;;;;;;;;;;5039904;28;20213;-75